Etusivu
METAR-TAF:

METAR-TAF

Lentoasemat :

Pjongjang, Pohjois-Korea

Sunanin kansainvälinen lentoasema

Leveyspiiri: 39-02N, Pituuspiiri: 125-47E, korkeus merenpinnasta: 36 m

METAR: puuttuu

Aika: 15:33 (07:03 UTC)

Sääennuste

Tämä raportti tehtiin 2 tuntia ja 33 minuuttia sitten, kello 04.30 UTC
Ennuste voimassa 20. päivästä klo 06 UTC - 21. päivään klo 06 UTC
Tuuli 6 kn pohjoisen/luoteesta
Näkyvyys: 6000 m
Tulossa
20. päivästä klo 09 UTC - 20. päivään klo 11 UTC
Tuuli 6 kn pohjoisesta
Näkyvyys: 3000 m
utua
Ajoittain
20. päivästä klo 22 UTC - 21. päivään klo 01 UTC
Näkyvyys: 0500 m
sumua

TAF: ZKPY 200430Z 2006/2106 34003MPS 6000 NSC BECMG 2009/2011 35003MPS 3000 BR TEMPO 2022/2101 0500 FG TX03/2007Z TNM08/2021Z

Säähavainnot ja -ennusteet yli 4000 lentoasemalta (METAR- ja TAF-raportit).

Käytössä olevat sääasemat on merkitty karttaan keltaisilla ja punaisilla pisteillä.

Aseta hiiri pisteen päälle nähdäksesi sääaseman nimen.

Klikkaa sitten nähdäksesi säähavainnot ja -ennusteet.

Kartan vaihtaminen: klikkaa mustalla rastilla varustettuja vihreitä pisteitä, niin voit zoomata sisään; viivalla varustettua vihreää pistettä, niin voit zoomata ulos tai vihreitä nuolia, niin pääset viereisille kartoille.


METAR-TAF: